sensor_id;sensor_type;location;lat;lon;timestamp;pressure;altitude;pressure_sealevel;temperature
49154;BMP280;49455;52.252;9.124;2023-05-10T00:00:27;98665.59;;;16.00
49154;BMP280;49455;52.252;9.124;2023-05-10T00:05:28;98656.13;;;15.93
49154;BMP280;49455;52.252;9.124;2023-05-10T00:10:28;98646.59;;;15.89
49154;BMP280;49455;52.252;9.124;2023-05-10T00:15:29;98651.81;;;15.90
49154;BMP280;49455;52.252;9.124;2023-05-10T00:20:29;98650.09;;;15.88
49154;BMP280;49455;52.252;9.124;2023-05-10T00:25:29;98643.16;;;15.87
49154;BMP280;49455;52.252;9.124;2023-05-10T00:30:30;98639.72;;;15.83
49154;BMP280;49455;52.252;9.124;2023-05-10T00:35:30;98640.69;;;15.73
49154;BMP280;49455;52.252;9.124;2023-05-10T00:40:31;98636.34;;;15.73
49154;BMP280;49455;52.252;9.124;2023-05-10T00:45:37;98632.03;;;15.70
49154;BMP280;49455;52.252;9.124;2023-05-10T00:50:38;98635.59;;;15.63
49154;BMP280;49455;52.252;9.124;2023-05-10T00:55:38;98638.25;;;15.56
49154;BMP280;49455;52.252;9.124;2023-05-10T01:00:41;98628.59;;;15.68
49154;BMP280;49455;52.252;9.124;2023-05-10T01:05:42;98628.59;;;15.68
49154;BMP280;49455;52.252;9.124;2023-05-10T01:10:42;98624.34;;;15.58
49154;BMP280;49455;52.252;9.124;2023-05-10T01:15:44;98627.84;;;15.57
49154;BMP280;49455;52.252;9.124;2023-05-10T01:20:49;98626.13;;;15.53
49154;BMP280;49455;52.252;9.124;2023-05-10T01:31:30;98621.88;;;15.46
49154;BMP280;49455;52.252;9.124;2023-05-10T01:36:43;98625.38;;;15.40
49154;BMP280;49455;52.252;9.124;2023-05-10T01:47:11;98629.75;;;15.35
49154;BMP280;49455;52.252;9.124;2023-05-10T01:52:14;98622.88;;;15.29
49154;BMP280;49455;52.252;9.124;2023-05-10T01:57:16;98622.09;;;15.20
49154;BMP280;49455;52.252;9.124;2023-05-10T02:02:20;98625.63;;;15.07
49154;BMP280;49455;52.252;9.124;2023-05-10T02:07:21;98623.00;;;15.13
49154;BMP280;49455;52.252;9.124;2023-05-10T02:12:22;98616.97;;;15.11
49154;BMP280;49455;52.252;9.124;2023-05-10T02:17:24;98628.25;;;15.04
49154;BMP280;49455;52.252;9.124;2023-05-10T02:22:27;98628.19;;;15.13
49154;BMP280;49455;52.252;9.124;2023-05-10T02:27:29;98617.03;;;14.96
49154;BMP280;49455;52.252;9.124;2023-05-10T02:32:30;98619.81;;;14.68
49154;BMP280;49455;52.252;9.124;2023-05-10T02:37:31;98619.06;;;14.47
49154;BMP280;49455;52.252;9.124;2023-05-10T02:42:35;98624.28;;;14.43
49154;BMP280;49455;52.252;9.124;2023-05-10T02:47:38;98612.25;;;14.25
49154;BMP280;49455;52.252;9.124;2023-05-10T02:52:47;98616.50;;;14.41
49154;BMP280;49455;52.252;9.124;2023-05-10T02:57:56;98608.69;;;14.44
49154;BMP280;49455;52.252;9.124;2023-05-10T03:02:57;98605.25;;;14.39
49154;BMP280;49455;52.252;9.124;2023-05-10T03:07:59;98605.25;;;14.39
49154;BMP280;49455;52.252;9.124;2023-05-10T03:18:10;98616.50;;;14.44
49154;BMP280;49455;52.252;9.124;2023-05-10T03:28:34;98631.44;;;13.74
49154;BMP280;49455;52.252;9.124;2023-05-10T03:33:34;98625.41;;;13.37
49154;BMP280;49455;52.252;9.124;2023-05-10T03:38:35;98627.13;;;13.32
49154;BMP280;49455;52.252;9.124;2023-05-10T03:43:35;98628.00;;;13.43
49154;BMP280;49455;52.252;9.124;2023-05-10T03:48:36;98628.84;;;13.64
49154;BMP280;49455;52.252;9.124;2023-05-10T03:53:36;98653.94;;;13.66
49154;BMP280;49455;52.252;9.124;2023-05-10T03:58:37;98651.34;;;13.37
49154;BMP280;49455;52.252;9.124;2023-05-10T04:03:38;98663.47;;;13.41
49154;BMP280;49455;52.252;9.124;2023-05-10T04:08:39;98661.72;;;13.56
49154;BMP280;49455;52.252;9.124;2023-05-10T04:13:40;98673.84;;;13.56
49154;BMP280;49455;52.252;9.124;2023-05-10T04:18:40;98662.59;;;13.42
49154;BMP280;49455;52.252;9.124;2023-05-10T04:23:40;98651.38;;;13.41
49154;BMP280;49455;52.252;9.124;2023-05-10T04:28:41;98649.63;;;13.29
49154;BMP280;49455;52.252;9.124;2023-05-10T04:33:41;98653.97;;;13.22
49154;BMP280;49455;52.252;9.124;2023-05-10T04:38:42;98657.41;;;13.24
49154;BMP280;49455;52.252;9.124;2023-05-10T04:43:42;98664.34;;;13.19
49154;BMP280;49455;52.252;9.124;2023-05-10T04:48:42;98673.84;;;13.45
49154;BMP280;49455;52.252;9.124;2023-05-10T04:53:43;98679.03;;;13.42
49154;BMP280;49455;52.252;9.124;2023-05-10T04:58:43;98686.81;;;13.53
49154;BMP280;49455;52.252;9.124;2023-05-10T05:03:44;98686.81;;;13.50
49154;BMP280;49455;52.252;9.124;2023-05-10T05:08:44;98698.94;;;13.65
49154;BMP280;49455;52.252;9.124;2023-05-10T05:13:44;98703.25;;;13.66
49154;BMP280;49455;52.252;9.124;2023-05-10T05:18:45;98711.91;;;13.74
49154;BMP280;49455;52.252;9.124;2023-05-10T05:23:45;98711.00;;;13.93
49154;BMP280;49455;52.252;9.124;2023-05-10T05:28:46;98720.53;;;13.94
49154;BMP280;49455;52.252;9.124;2023-05-10T05:33:46;98724.00;;;13.86
49154;BMP280;49455;52.252;9.124;2023-05-10T05:38:47;98722.28;;;13.95
49154;BMP280;49455;52.252;9.124;2023-05-10T05:43:47;98711.03;;;14.02
49154;BMP280;49455;52.252;9.124;2023-05-10T05:48:49;98723.16;;;14.03
49154;BMP280;49455;52.252;9.124;2023-05-10T05:53:50;98737.84;;;13.90
49154;BMP280;49455;52.252;9.124;2023-05-10T05:58:50;98746.50;;;13.69
49154;BMP280;49455;52.252;9.124;2023-05-10T06:03:51;98761.22;;;13.60
49154;BMP280;49455;52.252;9.124;2023-05-10T06:08:51;98777.66;;;13.38
49154;BMP280;49455;52.252;9.124;2023-05-10T06:13:52;98785.38;;;13.20
49154;BMP280;49455;52.252;9.124;2023-05-10T06:18:52;98786.22;;;13.15
49154;BMP280;49455;52.252;9.124;2023-05-10T06:23:52;98790.56;;;13.17
49154;BMP280;49455;52.252;9.124;2023-05-10T06:28:53;98806.09;;;13.07
49154;BMP280;49455;52.252;9.124;2023-05-10T06:33:53;98813.91;;;13.17
49154;BMP280;49455;52.252;9.124;2023-05-10T06:38:54;98819.13;;;13.32
49154;BMP280;49455;52.252;9.124;2023-05-10T06:43:55;98823.41;;;13.24
49154;BMP280;49455;52.252;9.124;2023-05-10T06:48:55;98835.53;;;13.22
49154;BMP280;49455;52.252;9.124;2023-05-10T06:53:55;98839.88;;;13.32
49154;BMP280;49455;52.252;9.124;2023-05-10T06:58:56;98845.94;;;13.37
49154;BMP280;49455;52.252;9.124;2023-05-10T07:03:56;98852.00;;;13.36
49154;BMP280;49455;52.252;9.124;2023-05-10T07:08:56;98851.16;;;13.46
49154;BMP280;49455;52.252;9.124;2023-05-10T07:13:57;98852.91;;;13.41
49154;BMP280;49455;52.252;9.124;2023-05-10T07:18:57;98865.00;;;13.39
49154;BMP280;49455;52.252;9.124;2023-05-10T07:23:58;98871.00;;;13.28
49154;BMP280;49455;52.252;9.124;2023-05-10T07:28:58;98877.94;;;13.36
49154;BMP280;49455;52.252;9.124;2023-05-10T07:33:58;98891.81;;;13.48
49154;BMP280;49455;52.252;9.124;2023-05-10T07:38:59;98883.16;;;13.42
49154;BMP280;49455;52.252;9.124;2023-05-10T07:43:59;98887.50;;;13.41
49154;BMP280;49455;52.252;9.124;2023-05-10T07:48:59;98903.03;;;13.37
49154;BMP280;49455;52.252;9.124;2023-05-10T07:54:00;98903.03;;;13.38
49154;BMP280;49455;52.252;9.124;2023-05-10T07:59:02;98904.78;;;13.41
49154;BMP280;49455;52.252;9.124;2023-05-10T08:04:02;98911.75;;;13.52
49154;BMP280;49455;52.252;9.124;2023-05-10T08:09:03;98916.91;;;13.54
49154;BMP280;49455;52.252;9.124;2023-05-10T08:14:03;98917.88;;;13.84
49154;BMP280;49455;52.252;9.124;2023-05-10T08:19:03;98928.34;;;14.12
49154;BMP280;49455;52.252;9.124;2023-05-10T08:24:04;98927.50;;;14.42
49154;BMP280;49455;52.252;9.124;2023-05-10T08:29:04;98925.75;;;14.32
49154;BMP280;49455;52.252;9.124;2023-05-10T08:34:05;98926.63;;;14.27
49154;BMP280;49455;52.252;9.124;2023-05-10T08:39:05;98938.75;;;14.28
49154;BMP280;49455;52.252;9.124;2023-05-10T08:44:07;98932.69;;;14.42
49154;BMP280;49455;52.252;9.124;2023-05-10T08:49:08;98939.63;;;14.55
49154;BMP280;49455;52.252;9.124;2023-05-10T08:54:10;98938.75;;;14.74
49154;BMP280;49455;52.252;9.124;2023-05-10T08:59:10;98943.06;;;14.86
49154;BMP280;49455;52.252;9.124;2023-05-10T09:04:12;98943.06;;;14.98
49154;BMP280;49455;52.252;9.124;2023-05-10T09:09:13;98956.94;;;15.00
49154;BMP280;49455;52.252;9.124;2023-05-10T09:14:15;98961.25;;;15.20
49154;BMP280;49455;52.252;9.124;2023-05-10T09:19:15;98960.28;;;15.49
49154;BMP280;49455;52.252;9.124;2023-05-10T09:24:15;98968.84;;;15.72
49154;BMP280;49455;52.252;9.124;2023-05-10T09:29:16;98961.84;;;15.81
49154;BMP280;49455;52.252;9.124;2023-05-10T09:34:43;98961.75;;;15.98
49154;BMP280;49455;52.252;9.124;2023-05-10T09:39:43;98971.31;;;16.02
49154;BMP280;49455;52.252;9.124;2023-05-10T09:44:45;98974.84;;;15.93
49154;BMP280;49455;52.252;9.124;2023-05-10T09:49:52;98979.03;;;16.19
49154;BMP280;49455;52.252;9.124;2023-05-10T09:54:53;98983.47;;;16.02
49154;BMP280;49455;52.252;9.124;2023-05-10T09:59:54;98989.63;;;15.93
49154;BMP280;49455;52.252;9.124;2023-05-10T10:04:55;98988.72;;;15.89
49154;BMP280;49455;52.252;9.124;2023-05-10T10:09:55;98986.16;;;15.88
49154;BMP280;49455;52.252;9.124;2023-05-10T10:14:56;98982.47;;;16.29
49154;BMP280;49455;52.252;9.124;2023-05-10T10:19:57;98985.66;;;16.67
49154;BMP280;49455;52.252;9.124;2023-05-10T10:24:58;98991.41;;;17.06
49154;BMP280;49455;52.252;9.124;2023-05-10T10:35:08;98982.97;;;16.78
49154;BMP280;49455;52.252;9.124;2023-05-10T10:45:27;98990.19;;;16.40
49154;BMP280;49455;52.252;9.124;2023-05-10T10:50:28;98977.53;;;17.01
49154;BMP280;49455;52.252;9.124;2023-05-10T10:55:28;98980.56;;;17.46
49154;BMP280;49455;52.252;9.124;2023-05-10T11:00:33;98980.66;;;17.39
49154;BMP280;49455;52.252;9.124;2023-05-10T11:16:18;98987.13;;;17.78
49154;BMP280;49455;52.252;9.124;2023-05-10T11:21:19;98981.56;;;17.36
49154;BMP280;49455;52.252;9.124;2023-05-10T11:26:19;98996.84;;;16.81
49154;BMP280;49455;52.252;9.124;2023-05-10T11:31:21;99005.59;;;16.74
49154;BMP280;49455;52.252;9.124;2023-05-10T11:36:25;99010.59;;;17.01
49154;BMP280;49455;52.252;9.124;2023-05-10T11:41:28;99003.63;;;17.82
49154;BMP280;49455;52.252;9.124;2023-05-10T11:46:28;98991.66;;;18.88
49154;BMP280;49455;52.252;9.124;2023-05-10T11:51:29;98988.63;;;19.58
49154;BMP280;49455;52.252;9.124;2023-05-10T11:56:32;98991.63;;;19.83
49154;BMP280;49455;52.252;9.124;2023-05-10T12:01:33;98986.44;;;19.37
49154;BMP280;49455;52.252;9.124;2023-05-10T12:06:37;98980.41;;;19.31
49154;BMP280;49455;52.252;9.124;2023-05-10T12:11:40;98982.13;;;19.33
49154;BMP280;49455;52.252;9.124;2023-05-10T12:16:42;98988.94;;;19.41
49154;BMP280;49455;52.252;9.124;2023-05-10T12:21:43;98984.41;;;19.94
49154;BMP280;49455;52.252;9.124;2023-05-10T12:26:45;98993.59;;;19.71
49154;BMP280;49455;52.252;9.124;2023-05-10T12:31:53;98997.69;;;19.42
49154;BMP280;49455;52.252;9.124;2023-05-10T12:36:54;98995.97;;;18.93
49154;BMP280;49455;52.252;9.124;2023-05-10T12:41:55;99008.16;;;18.94
49154;BMP280;49455;52.252;9.124;2023-05-10T12:46:55;99011.47;;;19.53
49154;BMP280;49455;52.252;9.124;2023-05-10T12:51:55;99005.25;;;20.39
49154;BMP280;49455;52.252;9.124;2023-05-10T12:56:56;99008.19;;;20.26
49154;BMP280;49455;52.252;9.124;2023-05-10T13:01:57;99016.81;;;19.92
49154;BMP280;49455;52.252;9.124;2023-05-10T13:06:57;99017.25;;;20.13
49154;BMP280;49455;52.252;9.124;2023-05-10T13:11:58;99023.31;;;20.52
49154;BMP280;49455;52.252;9.124;2023-05-10T13:16:58;99025.81;;;20.60
49154;BMP280;49455;52.252;9.124;2023-05-10T13:21:58;99020.38;;;20.30
49154;BMP280;49455;52.252;9.124;2023-05-10T13:26:59;99021.91;;;19.54
49154;BMP280;49455;52.252;9.124;2023-05-10T13:31:59;99028.69;;;19.64
49154;BMP280;49455;52.252;9.124;2023-05-10T13:36:59;99027.66;;;19.26
49154;BMP280;49455;52.252;9.124;2023-05-10T13:42:00;99030.81;;;18.95
49154;BMP280;49455;52.252;9.124;2023-05-10T13:47:00;99026.97;;;18.60
49154;BMP280;49455;52.252;9.124;2023-05-10T13:52:00;99036.38;;;18.73
49154;BMP280;49455;52.252;9.124;2023-05-10T13:57:01;99033.25;;;19.06
49154;BMP280;49455;52.252;9.124;2023-05-10T14:02:01;99029.94;;;18.96
49154;BMP280;49455;52.252;9.124;2023-05-10T14:07:02;99044.09;;;18.82
49154;BMP280;49455;52.252;9.124;2023-05-10T14:12:02;99046.09;;;18.00
49154;BMP280;49455;52.252;9.124;2023-05-10T14:17:03;99038.38;;;17.89
49154;BMP280;49455;52.252;9.124;2023-05-10T14:22:03;99052.16;;;18.06
49154;BMP280;49455;52.252;9.124;2023-05-10T14:27:03;99042.13;;;18.99
49154;BMP280;49455;52.252;9.124;2023-05-10T14:32:04;99041.94;;;19.57
49154;BMP280;49455;52.252;9.124;2023-05-10T14:37:04;99035.84;;;19.55
49154;BMP280;49455;52.252;9.124;2023-05-10T14:42:04;99024.91;;;18.83
49154;BMP280;49455;52.252;9.124;2023-05-10T14:47:05;99044.13;;;18.79
49154;BMP280;49455;52.252;9.124;2023-05-10T14:52:05;99042.31;;;19.36
49154;BMP280;49455;52.252;9.124;2023-05-10T14:57:06;99048.72;;;18.67
49154;BMP280;49455;52.252;9.124;2023-05-10T15:02:07;99058.31;;;17.99
49154;BMP280;49455;52.252;9.124;2023-05-10T15:07:07;99067.19;;;17.88
49154;BMP280;49455;52.252;9.124;2023-05-10T15:12:07;99069.28;;;17.55
49154;BMP280;49455;52.252;9.124;2023-05-10T15:17:08;99068.38;;;17.59
49154;BMP280;49455;52.252;9.124;2023-05-10T15:22:08;99072.13;;;17.30
49154;BMP280;49455;52.252;9.124;2023-05-10T15:27:09;99088.47;;;17.53
49154;BMP280;49455;52.252;9.124;2023-05-10T15:32:09;99103.47;;;17.30
49154;BMP280;49455;52.252;9.124;2023-05-10T15:37:09;99112.38;;;16.99
49154;BMP280;49455;52.252;9.124;2023-05-10T15:42:10;99112.47;;;16.89
49154;BMP280;49455;52.252;9.124;2023-05-10T15:47:10;99121.13;;;16.94
49154;BMP280;49455;52.252;9.124;2023-05-10T15:52:10;99123.88;;;16.70
49154;BMP280;49455;52.252;9.124;2023-05-10T15:57:11;99125.47;;;16.98
49154;BMP280;49455;52.252;9.124;2023-05-10T16:02:11;99125.47;;;16.96
49154;BMP280;49455;52.252;9.124;2023-05-10T16:07:12;99124.47;;;17.18
49154;BMP280;49455;52.252;9.124;2023-05-10T16:12:12;99137.34;;;17.40
49154;BMP280;49455;52.252;9.124;2023-05-10T16:17:12;99133.75;;;17.52
49154;BMP280;49455;52.252;9.124;2023-05-10T16:22:13;99133.63;;;17.66
49154;BMP280;49455;52.252;9.124;2023-05-10T16:27:19;99138.81;;;17.68
49154;BMP280;49455;52.252;9.124;2023-05-10T16:32:19;99150.81;;;17.86
49154;BMP280;49455;52.252;9.124;2023-05-10T16:37:20;99157.34;;;17.44
49154;BMP280;49455;52.252;9.124;2023-05-10T16:42:20;99157.50;;;17.19
49154;BMP280;49455;52.252;9.124;2023-05-10T16:47:20;99171.50;;;17.11
49154;BMP280;49455;52.252;9.124;2023-05-10T16:52:21;99181.88;;;17.21
49154;BMP280;49455;52.252;9.124;2023-05-10T16:57:21;99190.09;;;16.55
49154;BMP280;49455;52.252;9.124;2023-05-10T17:02:22;99197.88;;;16.56
49154;BMP280;49455;52.252;9.124;2023-05-10T17:07:22;99195.44;;;15.99
49154;BMP280;49455;52.252;9.124;2023-05-10T17:12:22;99198.88;;;16.18
49154;BMP280;49455;52.252;9.124;2023-05-10T17:17:23;99205.84;;;16.15
49154;BMP280;49455;52.252;9.124;2023-05-10T17:22:23;99198.91;;;15.95
49154;BMP280;49455;52.252;9.124;2023-05-10T17:27:24;99211.94;;;15.86
49154;BMP280;49455;52.252;9.124;2023-05-10T17:32:24;99214.59;;;15.68
49154;BMP280;49455;52.252;9.124;2023-05-10T17:37:25;99216.31;;;15.47
49154;BMP280;49455;52.252;9.124;2023-05-10T17:42:25;99217.19;;;15.42
49154;BMP280;49455;52.252;9.124;2023-05-10T17:47:25;99220.63;;;15.32
49154;BMP280;49455;52.252;9.124;2023-05-10T17:52:26;99229.28;;;15.22
49154;BMP280;49455;52.252;9.124;2023-05-10T17:57:26;99232.75;;;15.30
49154;BMP280;49455;52.252;9.124;2023-05-10T18:02:27;99235.38;;;15.21
49154;BMP280;49455;52.252;9.124;2023-05-10T18:07:27;99236.19;;;15.08
49154;BMP280;49455;52.252;9.124;2023-05-10T18:12:29;99234.44;;;15.01
49154;BMP280;49455;52.252;9.124;2023-05-10T18:17:29;99237.91;;;15.06
49154;BMP280;49455;52.252;9.124;2023-05-10T18:22:29;99248.25;;;14.82
49154;BMP280;49455;52.252;9.124;2023-05-10T18:27:30;99254.28;;;14.74
49154;BMP280;49455;52.252;9.124;2023-05-10T18:32:30;99251.66;;;14.73
49154;BMP280;49455;52.252;9.124;2023-05-10T18:37:31;99257.75;;;14.73
49154;BMP280;49455;52.252;9.124;2023-05-10T18:42:32;99262.88;;;14.58
49154;BMP280;49455;52.252;9.124;2023-05-10T18:47:32;99272.44;;;14.64
49154;BMP280;49455;52.252;9.124;2023-05-10T18:52:33;99282.78;;;14.46
49154;BMP280;49455;52.252;9.124;2023-05-10T18:57:33;99292.22;;;14.34
49154;BMP280;49455;52.252;9.124;2023-05-10T19:02:34;99303.44;;;14.25
49154;BMP280;49455;52.252;9.124;2023-05-10T19:07:34;99311.06;;;14.05
49154;BMP280;49455;52.252;9.124;2023-05-10T19:12:35;99310.34;;;14.23
49154;BMP280;49455;52.252;9.124;2023-05-10T19:17:35;99317.28;;;14.24
49154;BMP280;49455;52.252;9.124;2023-05-10T19:22:35;99321.63;;;14.28
49154;BMP280;49455;52.252;9.124;2023-05-10T19:27:36;99340.59;;;14.19
49154;BMP280;49455;52.252;9.124;2023-05-10T19:32:36;99343.06;;;13.98
49154;BMP280;49455;52.252;9.124;2023-05-10T19:37:37;99338.81;;;14.10
49154;BMP280;49455;52.252;9.124;2023-05-10T19:42:37;99331.13;;;14.22
49154;BMP280;49455;52.252;9.124;2023-05-10T19:47:37;99337.19;;;14.24
49154;BMP280;49455;52.252;9.124;2023-05-10T19:52:38;99344.13;;;14.25
49154;BMP280;49455;52.252;9.124;2023-05-10T19:57:38;99344.94;;;14.17
49154;BMP280;49455;52.252;9.124;2023-05-10T20:02:39;99339.75;;;14.17
49154;BMP280;49455;52.252;9.124;2023-05-10T20:07:39;99346.63;;;14.09
49154;BMP280;49455;52.252;9.124;2023-05-10T20:12:40;99344.13;;;14.22
49154;BMP280;49455;52.252;9.124;2023-05-10T20:17:40;99350.13;;;14.18
49154;BMP280;49455;52.252;9.124;2023-05-10T20:22:41;99340.56;;;14.11
49154;BMP280;49455;52.252;9.124;2023-05-10T20:27:42;99346.63;;;14.12
49154;BMP280;49455;52.252;9.124;2023-05-10T20:32:42;99338.84;;;14.12
49154;BMP280;49455;52.252;9.124;2023-05-10T20:37:43;99344.88;;;14.09
49154;BMP280;49455;52.252;9.124;2023-05-10T20:42:43;99340.53;;;14.10
49154;BMP280;49455;52.252;9.124;2023-05-10T20:47:43;99337.03;;;14.00
49154;BMP280;49455;52.252;9.124;2023-05-10T20:52:44;99342.22;;;14.05
49154;BMP280;49455;52.252;9.124;2023-05-10T20:57:44;99341.31;;;13.98
49154;BMP280;49455;52.252;9.124;2023-05-10T21:02:45;99342.94;;;13.90
49154;BMP280;49455;52.252;9.124;2023-05-10T21:07:45;99339.59;;;13.99
49154;BMP280;49455;52.252;9.124;2023-05-10T21:12:46;99345.59;;;13.95
49154;BMP280;49455;52.252;9.124;2023-05-10T21:17:46;99343.84;;;13.92
49154;BMP280;49455;52.252;9.124;2023-05-10T21:22:46;99343.72;;;13.81
49154;BMP280;49455;52.252;9.124;2023-05-10T21:27:47;99347.97;;;13.71
49154;BMP280;49455;52.252;9.124;2023-05-10T21:32:47;99342.72;;;13.65
49154;BMP280;49455;52.252;9.124;2023-05-10T21:37:48;99344.41;;;13.60
49154;BMP280;49455;52.252;9.124;2023-05-10T21:42:48;99339.22;;;13.60
49154;BMP280;49455;52.252;9.124;2023-05-10T21:47:48;99331.41;;;13.59
49154;BMP280;49455;52.252;9.124;2023-05-10T21:52:49;99339.97;;;13.51
49154;BMP280;49455;52.252;9.124;2023-05-10T21:57:49;99334.75;;;13.46
49154;BMP280;49455;52.252;9.124;2023-05-10T22:02:50;99332.09;;;13.42
49154;BMP280;49455;52.252;9.124;2023-05-10T22:07:50;99330.41;;;13.44
49154;BMP280;49455;52.252;9.124;2023-05-10T22:12:51;99332.97;;;13.42
49154;BMP280;49455;52.252;9.124;2023-05-10T22:17:51;99329.47;;;13.39
49154;BMP280;49455;52.252;9.124;2023-05-10T22:22:53;99329.47;;;13.40
49154;BMP280;49455;52.252;9.124;2023-05-10T22:27:54;99340.75;;;13.41
49154;BMP280;49455;52.252;9.124;2023-05-10T22:32:57;99339.81;;;13.36
49154;BMP280;49455;52.252;9.124;2023-05-10T22:37:58;99339.00;;;13.40
49154;BMP280;49455;52.252;9.124;2023-05-10T22:42:58;99340.84;;;13.50
49154;BMP280;49455;52.252;9.124;2023-05-10T22:47:58;99352.00;;;13.43
49154;BMP280;49455;52.252;9.124;2023-05-10T22:52:59;99353.78;;;13.47
49154;BMP280;49455;52.252;9.124;2023-05-10T22:57:59;99358.13;;;13.49
49154;BMP280;49455;52.252;9.124;2023-05-10T23:02:59;99359.88;;;13.50
49154;BMP280;49455;52.252;9.124;2023-05-10T23:08:00;99364.13;;;13.45
49154;BMP280;49455;52.252;9.124;2023-05-10T23:13:00;99368.47;;;13.45
49154;BMP280;49455;52.252;9.124;2023-05-10T23:18:01;99364.06;;;13.38
49154;BMP280;49455;52.252;9.124;2023-05-10T23:23:01;99367.56;;;13.43
49154;BMP280;49455;52.252;9.124;2023-05-10T23:28:02;99371.06;;;13.45
49154;BMP280;49455;52.252;9.124;2023-05-10T23:33:02;99373.63;;;13.42
49154;BMP280;49455;52.252;9.124;2023-05-10T23:38:03;99378.81;;;13.42
49154;BMP280;49455;52.252;9.124;2023-05-10T23:43:03;99373.69;;;13.46
49154;BMP280;49455;52.252;9.124;2023-05-10T23:48:04;99373.69;;;13.48
49154;BMP280;49455;52.252;9.124;2023-05-10T23:53:04;99374.63;;;13.56
49154;BMP280;49455;52.252;9.124;2023-05-10T23:58:04;99379.84;;;13.57
